createdAt,value
2018-12-12T00:00:04.997Z,28.3
2018-12-12T00:00:53.804Z,28.3
2018-12-12T00:01:44.982Z,28.3
2018-12-12T00:02:34.749Z,28.3
2018-12-12T00:03:25.104Z,28.3
2018-12-12T00:04:14.321Z,28.3
2018-12-12T00:05:04.956Z,28.3
2018-12-12T00:05:54.717Z,28.3
2018-12-12T00:06:44.489Z,28.3
2018-12-12T00:25:02.024Z,28.1
2018-12-12T00:25:50.977Z,28.2
2018-12-12T00:26:41.376Z,28.2
2018-12-12T00:27:31.643Z,28.2
2018-12-12T00:28:20.865Z,28.2
2018-12-12T00:29:10.385Z,28.2
2018-12-12T00:30:01.766Z,28.1
2018-12-12T00:30:52.116Z,28.2
2018-12-12T00:31:41.115Z,28.1
2018-12-12T00:32:31.697Z,28.1
2018-12-12T00:33:21.776Z,28.1
2018-12-12T00:34:11.861Z,28.1
2018-12-12T00:35:02.444Z,28.1
2018-12-12T00:35:51.676Z,28.1
2018-12-12T00:36:41.708Z,28.1
2018-12-12T00:37:32.108Z,28.1
2018-12-12T00:38:21.565Z,28.1
2018-12-12T00:39:12.458Z,28.1
2018-12-12T00:40:02.315Z,28.1
2018-12-12T00:40:52.558Z,28.1
2018-12-12T00:41:42.370Z,28.1
2018-12-12T00:42:32.162Z,28.1
2018-12-12T00:43:22.187Z,28.1
2018-12-12T00:44:11.670Z,28.1
2018-12-12T00:45:03.405Z,28.1
2018-12-12T00:45:52.599Z,28.1
2018-12-12T00:46:41.861Z,28.1
2018-12-12T00:47:32.504Z,28.1
2018-12-12T00:48:21.942Z,28.1
2018-12-12T00:49:13.429Z,28.1
2018-12-12T00:50:02.335Z,28.1
2018-12-12T00:50:52.427Z,28.1
2018-12-12T00:51:42.994Z,28.1
2018-12-12T00:52:31.976Z,28.1
2018-12-12T00:53:22.907Z,28.1
2018-12-12T00:54:12.944Z,28.1
2018-12-12T00:55:02.979Z,28.1
2018-12-12T00:55:53.089Z,28.1
2018-12-12T00:56:42.831Z,28.1
2018-12-12T00:57:33.456Z,28.1
2018-12-12T00:58:23.236Z,28.1
2018-12-12T00:59:13.549Z,28.1
2018-12-12T01:00:03.651Z,28.1
2018-12-12T01:00:53.658Z,28.1
2018-12-12T01:01:43.728Z,28.1
2018-12-12T01:02:33.503Z,28
2018-12-12T01:03:23.569Z,28.1
2018-12-12T01:04:14.137Z,28
2018-12-12T01:05:03.450Z,28
2018-12-12T01:05:54.263Z,28
2018-12-12T01:06:43.485Z,28
2018-12-12T01:07:34.508Z,28
2018-12-12T01:08:23.913Z,28
2018-12-12T01:09:13.981Z,28
2018-12-12T01:10:05.298Z,28
2018-12-12T01:10:53.841Z,28
2018-12-12T01:11:44.148Z,28
2018-12-12T01:12:34.485Z,28
2018-12-12T01:13:24.328Z,28
2018-12-12T01:14:14.351Z,28
2018-12-12T01:15:04.675Z,28
2018-12-12T01:15:54.993Z,28
2018-12-12T01:16:44.603Z,27.9
2018-12-12T01:17:35.110Z,28
2018-12-12T01:18:24.620Z,27.9
2018-12-12T01:19:14.677Z,27.9
2018-12-12T01:20:04.603Z,28
2018-12-12T01:20:55.302Z,27.9
2018-12-12T01:21:45.887Z,27.9
2018-12-12T01:22:35.485Z,27.9
2018-12-12T01:23:25.514Z,27.9
2018-12-12T01:24:15.350Z,27.9
2018-12-12T01:25:05.392Z,27.9
2018-12-12T01:25:55.459Z,27.9
2018-12-12T01:26:44.885Z,27.9
2018-12-12T01:27:35.509Z,27.9
2018-12-12T01:28:24.749Z,27.9
2018-12-12T01:29:14.887Z,27.9
2018-12-12T01:30:04.464Z,27.9
2018-12-12T01:30:55.630Z,27.9
2018-12-12T01:31:45.324Z,27.9
2018-12-12T01:32:34.639Z,27.9
2018-12-12T01:33:25.179Z,27.9
2018-12-12T01:34:15.521Z,27.9
2018-12-12T01:35:05.852Z,27.9
2018-12-12T01:35:55.887Z,27.9
2018-12-12T01:36:45.675Z,27.9
2018-12-12T01:37:35.478Z,27.9
2018-12-12T01:38:25.609Z,27.9
2018-12-12T01:39:15.314Z,27.9
2018-12-12T01:40:05.935Z,27.9
2018-12-12T01:40:55.497Z,27.9
2018-12-12T01:41:45.757Z,27.9
2018-12-12T01:42:36.381Z,27.9
2018-12-12T01:43:25.669Z,27.9
2018-12-12T01:44:15.194Z,27.9
2018-12-12T01:45:05.482Z,27.9
2018-12-12T01:47:35.916Z,27.9
2018-12-12T01:49:16.758Z,27.9
2018-12-12T02:01:47.448Z,27.9
2018-12-12T02:02:36.925Z,27.9
2018-12-12T02:03:26.980Z,27.9
2018-12-12T02:04:17.600Z,27.9
2018-12-12T02:05:07.653Z,28
2018-12-12T02:05:57.684Z,28.1
2018-12-12T02:06:48.113Z,28.1
2018-12-12T02:07:38.089Z,28.2
2018-12-12T02:08:27.900Z,28.3
2018-12-12T02:09:18.232Z,28.3
2018-12-12T02:10:07.728Z,28.4
2018-12-12T02:10:57.750Z,28.4
2018-12-12T02:11:48.113Z,28.6
2018-12-12T02:12:37.910Z,28.6
2018-12-12T02:13:28.252Z,28.7
2018-12-12T02:14:18.285Z,28.8
2018-12-12T02:15:08.347Z,28.9
2018-12-12T02:15:58.152Z,29
2018-12-12T02:16:48.225Z,29.1
2018-12-12T02:17:38.527Z,29.2
2018-12-12T02:18:28.276Z,29.3
2018-12-12T02:19:18.365Z,29.4
2018-12-12T02:20:07.606Z,29.5
2018-12-12T02:20:58.324Z,29.6
2018-12-12T02:21:48.497Z,29.7
2018-12-12T02:22:38.587Z,29.8
2018-12-12T02:23:28.900Z,29.9
2018-12-12T02:24:18.421Z,30
2018-12-12T02:25:08.769Z,30.1
2018-12-12T02:25:59.618Z,30.2
2018-12-12T02:26:48.806Z,30.3
2018-12-12T02:27:38.932Z,30.4
2018-12-12T02:28:29.187Z,30.5
2018-12-12T02:29:19.061Z,30.6
2018-12-12T02:30:09.189Z,30.7
2018-12-12T02:30:59.954Z,30.8
2018-12-12T02:31:49.830Z,30.9
2018-12-12T02:32:40.618Z,31.1
2018-12-12T02:33:30.647Z,31.1
2018-12-12T02:34:19.204Z,31.3
2018-12-12T02:35:09.734Z,31.4
2018-12-12T02:35:59.851Z,31.5
2018-12-12T02:36:49.834Z,31.6
2018-12-12T02:37:39.933Z,31.7
2018-12-12T02:38:30.262Z,31.8
2018-12-12T02:39:20.048Z,31.9
2018-12-12T02:40:08.822Z,32
2018-12-12T02:40:59.430Z,32.1
2018-12-12T02:41:49.475Z,32.2
2018-12-12T02:42:40.106Z,32.3
2018-12-12T02:43:29.880Z,32.4
2018-12-12T02:44:19.703Z,32.5
2018-12-12T02:45:08.967Z,32.6
2018-12-12T02:45:58.776Z,32.8
2018-12-12T02:46:49.627Z,32.9
2018-12-12T02:47:38.818Z,32.9
2018-12-12T02:48:30.273Z,33.1
2018-12-12T02:49:19.437Z,33.2
2018-12-12T02:50:10.062Z,33.3
2018-12-12T02:51:00.125Z,33.4
2018-12-12T02:51:50.724Z,33.6
2018-12-12T02:52:40.768Z,33.6
2018-12-12T02:53:30.610Z,33.8
2018-12-12T02:54:20.067Z,33.9
2018-12-12T02:55:10.888Z,34
2018-12-12T02:56:00.625Z,34.1
2018-12-12T02:56:50.520Z,34.3
2018-12-12T02:57:41.535Z,34.3
2018-12-12T02:58:31.154Z,34.4
2018-12-12T02:59:21.713Z,34.6
2018-12-12T03:00:10.970Z,34.7
2018-12-12T03:01:00.809Z,34.8
2018-12-12T03:01:51.611Z,34.9
2018-12-12T03:02:41.874Z,35.1
2018-12-12T03:03:32.852Z,35.2
2018-12-12T03:04:21.441Z,35.3
2018-12-12T03:05:10.722Z,35.4
2018-12-12T03:06:02.131Z,35.5
2018-12-12T03:06:51.950Z,35.6
2018-12-12T03:07:42.263Z,35.8
2018-12-12T03:08:31.674Z,35.8
2018-12-12T03:09:22.565Z,36
2018-12-12T03:10:12.096Z,36.1
2018-12-12T03:11:02.736Z,36.2
2018-12-12T03:11:52.233Z,36.3
2018-12-12T03:12:42.648Z,36.4
2018-12-12T03:13:32.641Z,36.6
2018-12-12T03:14:23.194Z,36.7
2018-12-12T03:15:12.823Z,36.8
2018-12-12T03:16:03.365Z,36.9
2018-12-12T03:16:52.571Z,37.1
2018-12-12T03:17:43.411Z,37.2
2018-12-12T03:18:32.703Z,37.3
2018-12-12T03:19:23.613Z,37.4
2018-12-12T03:20:13.651Z,37.6
2018-12-12T03:21:03.146Z,37.7
2018-12-12T03:21:53.833Z,37.8
2018-12-12T03:22:43.515Z,37.9
2018-12-12T03:23:33.915Z,38.1
2018-12-12T03:24:23.932Z,38.2
2018-12-12T03:25:13.735Z,38.3
2018-12-12T03:26:03.495Z,38.4
2018-12-12T03:26:53.348Z,38.5
2018-12-12T03:27:44.148Z,38.6
2018-12-12T03:28:33.663Z,38.8
2018-12-12T03:29:23.445Z,38.8
2018-12-12T03:30:14.225Z,38.9
2018-12-12T03:31:04.481Z,39
2018-12-12T03:31:54.291Z,39.1
2018-12-12T03:32:44.288Z,39.1
2018-12-12T03:33:33.992Z,39.2
2018-12-12T03:34:24.668Z,39.2
2018-12-12T03:35:14.687Z,39.2
2018-12-12T03:36:04.200Z,39.3
2018-12-12T03:36:53.755Z,39.3
2018-12-12T03:37:44.982Z,39.3
2018-12-12T03:38:34.104Z,39.3
2018-12-12T03:39:25.155Z,39.4
2018-12-12T03:40:14.210Z,39.4
2018-12-12T03:41:04.807Z,39.4
2018-12-12T03:41:54.632Z,39.4
2018-12-12T03:42:44.940Z,39.4
2018-12-12T03:43:35.046Z,39.4
2018-12-12T03:44:25.352Z,39.4
2018-12-12T03:45:14.254Z,39.4
2018-12-12T03:46:04.607Z,39.4
2018-12-12T03:46:55.194Z,39.4
2018-12-12T03:47:45.582Z,39.4
2018-12-12T03:48:35.644Z,39.4
2018-12-12T03:49:25.372Z,39.4
2018-12-12T03:50:15.750Z,39.4
2018-12-12T03:51:05.751Z,39.4
2018-12-12T03:51:55.262Z,39.4
2018-12-12T03:52:45.611Z,39.4
2018-12-12T03:53:35.399Z,39.4
2018-12-12T03:54:25.970Z,39.4
2018-12-12T03:55:15.764Z,39.4
2018-12-12T03:56:04.983Z,39.4
2018-12-12T03:56:55.692Z,39.5
2018-12-12T03:57:45.960Z,39.4
2018-12-12T03:58:36.111Z,39.4
2018-12-12T03:59:25.857Z,39.4
2018-12-12T04:00:16.608Z,39.4
2018-12-12T04:01:06.472Z,39.4
2018-12-12T04:01:56.048Z,39.4
2018-12-12T04:02:46.329Z,39.4
2018-12-12T04:03:36.097Z,39.5
2018-12-12T04:04:25.803Z,39.5
2018-12-12T04:05:16.270Z,39.6
2018-12-12T04:06:05.671Z,39.6
2018-12-12T04:06:56.883Z,39.6
2018-12-12T04:07:45.540Z,39.7
2018-12-12T04:08:35.930Z,39.7
2018-12-12T04:09:27.105Z,39.7
2018-12-12T04:10:17.075Z,39.7
2018-12-12T04:11:06.652Z,39.7
2018-12-12T04:11:57.255Z,39.7
2018-12-12T04:12:46.750Z,39.7
2018-12-12T04:13:37.350Z,39.8
2018-12-12T04:14:27.602Z,39.8
2018-12-12T04:15:17.245Z,39.8
2018-12-12T04:16:06.960Z,39.8
2018-12-12T04:16:56.992Z,39.8
2018-12-12T04:17:46.815Z,39.8
2018-12-12T04:18:37.102Z,39.8
2018-12-12T04:19:27.750Z,39.8
2018-12-12T04:20:16.944Z,39.8
2018-12-12T04:21:08.115Z,39.8
2018-12-12T04:21:57.134Z,39.8
2018-12-12T04:22:47.423Z,39.8
2018-12-12T04:23:37.562Z,39.8
2018-12-12T04:24:27.259Z,39.8
2018-12-12T04:25:18.816Z,39.8
2018-12-12T04:26:08.166Z,39.8
2018-12-12T04:26:57.951Z,39.8
2018-12-12T04:27:48.048Z,39.8
2018-12-12T04:28:37.530Z,39.8
2018-12-12T04:29:27.878Z,39.8
2018-12-12T04:30:18.476Z,39.8
2018-12-12T04:31:08.298Z,39.8
2018-12-12T04:31:58.605Z,39.8
2018-12-12T04:32:48.103Z,39.8
2018-12-12T04:33:38.153Z,39.8
2018-12-12T04:34:29.906Z,39.8
2018-12-12T04:35:18.803Z,39.8
2018-12-12T04:36:07.793Z,39.8
2018-12-12T04:36:58.895Z,39.7
2018-12-12T04:54:16.621Z,39.6
2018-12-12T04:55:06.492Z,39.6
2018-12-12T04:55:56.469Z,39.7
2018-12-12T04:56:47.101Z,39.6
2018-12-12T04:57:36.346Z,39.7
2018-12-12T04:58:26.366Z,39.6
2018-12-12T04:59:16.466Z,39.6
2018-12-12T05:00:06.314Z,39.7
2018-12-12T05:00:56.079Z,39.6
2018-12-12T05:01:46.664Z,39.6
2018-12-12T05:02:36.112Z,39.6
2018-12-12T05:03:26.426Z,39.6
2018-12-12T05:04:17.134Z,39.6
2018-12-12T05:05:06.853Z,39.6
2018-12-12T05:05:57.336Z,39.6
2018-12-12T05:06:47.376Z,39.6
2018-12-12T05:07:37.025Z,39.6
2018-12-12T05:08:27.885Z,39.6
2018-12-12T05:09:17.850Z,39.6
2018-12-12T05:10:08.534Z,39.6
2018-12-12T05:10:57.558Z,39.6
2018-12-12T05:11:47.328Z,39.6
2018-12-12T05:12:37.472Z,39.6
2018-12-12T05:13:27.403Z,39.6
2018-12-12T05:14:17.771Z,39.6
2018-12-12T05:15:07.862Z,39.6
2018-12-12T05:15:57.090Z,39.6
2018-12-12T05:16:48.160Z,39.6
2018-12-12T05:17:37.677Z,39.6
2018-12-12T05:18:28.075Z,39.6
2018-12-12T05:19:18.057Z,39.6
2018-12-12T05:20:07.559Z,39.6
2018-12-12T05:20:57.940Z,39.6
2018-12-12T05:21:47.698Z,39.6
2018-12-12T05:22:38.807Z,39.6
2018-12-12T05:23:28.107Z,39.6
2018-12-12T05:24:17.887Z,39.5
2018-12-12T05:25:08.544Z,39.6
2018-12-12T05:25:58.834Z,39.5
2018-12-12T05:26:48.599Z,39.5
2018-12-12T05:27:38.670Z,39.5
2018-12-12T05:28:27.599Z,39.5
2018-12-12T05:29:18.505Z,39.5
2018-12-12T05:30:08.894Z,39.5
2018-12-12T05:30:58.649Z,39.5
2018-12-12T05:31:49.904Z,39.5
2018-12-12T05:32:39.507Z,39.5
2018-12-12T05:33:28.553Z,39.5
2018-12-12T05:34:18.059Z,39.5
2018-12-12T05:35:08.352Z,39.4
2018-12-12T05:35:59.809Z,39.4
2018-12-12T05:36:48.746Z,39.4
2018-12-12T05:37:39.906Z,39.4
2018-12-12T05:38:28.284Z,39.4
2018-12-12T05:39:19.457Z,39.4
2018-12-12T05:40:08.923Z,39.4
2018-12-12T05:40:59.281Z,39.4
2018-12-12T05:41:49.064Z,39.4
2018-12-12T05:42:39.111Z,39.4
2018-12-12T05:43:30.049Z,39.4
2018-12-12T05:44:20.109Z,39.4
2018-12-12T05:45:09.561Z,39.4
2018-12-12T05:45:59.773Z,39.4
2018-12-12T05:46:49.720Z,39.4
2018-12-12T05:47:39.223Z,39.4
2018-12-12T05:48:30.061Z,39.4
2018-12-12T05:49:19.581Z,39.4
2018-12-12T05:50:09.943Z,39.4
2018-12-12T05:50:59.983Z,39.4
2018-12-12T05:51:50.036Z,39.4
2018-12-12T05:52:40.648Z,39.4
2018-12-12T05:53:29.610Z,39.4
2018-12-12T05:54:19.936Z,39.4
2018-12-12T05:55:10.290Z,39.4
2018-12-12T05:56:07.080Z,39.4
2018-12-12T05:56:56.780Z,39.3
2018-12-12T05:57:40.713Z,39.4
2018-12-12T05:58:30.778Z,39.3
2018-12-12T05:59:20.340Z,39.3
2018-12-12T06:00:10.712Z,39.3
2018-12-12T06:01:00.764Z,39.3
2018-12-12T06:01:50.341Z,39.3
2018-12-12T06:02:40.315Z,39.3
2018-12-12T06:03:31.183Z,39.3
2018-12-12T06:04:20.782Z,39.3
2018-12-12T06:05:10.768Z,39.3
2018-12-12T06:06:00.947Z,39.3
2018-12-12T06:06:50.812Z,39.3
2018-12-12T06:07:41.473Z,39.3
2018-12-12T06:08:31.162Z,39.3
2018-12-12T06:09:20.412Z,39.3
2018-12-12T06:10:11.317Z,39.3
2018-12-12T06:11:01.632Z,39.3
2018-12-12T06:11:51.745Z,39.3
2018-12-12T06:12:42.337Z,39.3
2018-12-12T06:13:32.069Z,39.3
2018-12-12T06:14:21.822Z,39.3
2018-12-12T06:15:11.919Z,39.3
2018-12-12T06:16:02.220Z,39.3
2018-12-12T06:16:51.470Z,39.3
2018-12-12T06:17:42.710Z,39.3
2018-12-12T06:18:32.496Z,39.3
2018-12-12T06:19:21.486Z,39.3
2018-12-12T06:20:12.073Z,39.3
2018-12-12T06:21:01.842Z,39.2
2018-12-12T06:21:52.098Z,39.3
2018-12-12T06:22:43.430Z,39.2
2018-12-12T06:23:32.252Z,39.2
2018-12-12T06:24:22.588Z,39.2
2018-12-12T06:25:11.320Z,39.2
2018-12-12T06:26:02.683Z,39.2
2018-12-12T06:26:52.480Z,39.2
2018-12-12T06:27:43.073Z,39.2
2018-12-12T06:28:34.263Z,39.2
2018-12-12T06:29:22.862Z,39.1
2018-12-12T06:30:13.237Z,39.2
2018-12-12T06:31:03.057Z,39.2
2018-12-12T06:31:53.355Z,39.1
2018-12-12T06:32:42.868Z,39.1
2018-12-12T06:33:32.637Z,39.1
2018-12-12T06:34:23.752Z,39.1
2018-12-12T06:35:12.747Z,39.1
2018-12-12T06:36:03.357Z,39.1
2018-12-12T06:36:53.134Z,39.1
2018-12-12T06:37:43.543Z,39.1
2018-12-12T06:38:32.997Z,39.1
2018-12-12T06:39:23.309Z,39.1
2018-12-12T06:40:13.674Z,39.1
2018-12-12T06:41:04.256Z,39.1
2018-12-12T06:41:54.076Z,39.1
2018-12-12T06:42:44.101Z,39.1
2018-12-12T06:43:33.387Z,39.1
2018-12-12T06:44:22.697Z,39.1
2018-12-12T06:45:13.784Z,39.1
2018-12-12T06:46:03.571Z,39.1
2018-12-12T06:46:53.621Z,39.1
2018-12-12T06:47:43.956Z,39.1
2018-12-12T06:48:33.959Z,39.1
2018-12-12T06:49:23.961Z,39.1
2018-12-12T06:50:14.356Z,39.1
2018-12-12T06:51:04.096Z,39.1
2018-12-12T06:51:54.489Z,39.1
2018-12-12T06:52:44.489Z,39
2018-12-12T06:53:34.273Z,39
2018-12-12T06:54:24.040Z,39.1
2018-12-12T06:55:14.369Z,39
2018-12-12T06:56:04.728Z,39
2018-12-12T06:56:55.060Z,39
2018-12-12T06:57:44.336Z,39
2018-12-12T06:58:34.615Z,39
2018-12-12T06:59:25.790Z,39
2018-12-12T07:00:15.362Z,39
2018-12-12T07:01:05.081Z,38.9
2018-12-12T07:01:55.135Z,38.9
2018-12-12T07:02:44.418Z,38.9
2018-12-12T07:03:35.287Z,38.9
2018-12-12T07:04:25.011Z,38.9
2018-12-12T07:05:15.377Z,38.9
2018-12-12T07:06:05.405Z,38.9
2018-12-12T07:06:55.440Z,38.9
2018-12-12T07:07:45.555Z,38.9
2018-12-12T07:08:34.742Z,38.9
2018-12-12T07:09:25.884Z,38.9
2018-12-12T07:10:15.938Z,38.9
2018-12-12T07:11:05.548Z,38.9
2018-12-12T07:11:56.110Z,38.9
2018-12-12T07:12:45.334Z,38.9
2018-12-12T07:13:41.089Z,38.9
2018-12-12T07:14:26.382Z,38.9
2018-12-12T07:15:16.564Z,38.9
2018-12-12T07:16:06.114Z,38.9
2018-12-12T07:16:55.324Z,38.9
2018-12-12T07:17:45.714Z,38.9
2018-12-12T07:18:36.291Z,38.9
2018-12-12T07:19:26.651Z,38.9
2018-12-12T07:20:16.256Z,38.9
2018-12-12T07:21:07.072Z,38.9
2018-12-12T07:21:56.199Z,38.9
2018-12-12T07:22:47.201Z,38.9
2018-12-12T07:23:36.159Z,38.8
2018-12-12T07:24:26.732Z,38.8
2018-12-12T07:25:17.368Z,38.8
2018-12-12T07:26:06.881Z,38.8
2018-12-12T07:26:56.581Z,38.8
2018-12-12T07:27:46.916Z,38.8
2018-12-12T07:28:36.125Z,38.8
2018-12-12T07:29:27.091Z,38.8
2018-12-12T07:30:16.477Z,38.8
2018-12-12T07:31:06.636Z,38.8
2018-12-12T07:31:57.548Z,38.8
2018-12-12T07:32:47.294Z,38.8
2018-12-12T07:33:37.307Z,38.8
2018-12-12T07:34:26.868Z,38.8
2018-12-12T07:35:17.171Z,38.8
2018-12-12T07:36:06.661Z,38.8
2018-12-12T07:51:06.537Z,38.6
2018-12-12T07:51:42.412Z,38.6
2018-12-12T07:52:33.650Z,38.6
2018-12-12T07:53:22.517Z,38.6
2018-12-12T07:54:12.572Z,38.6
2018-12-12T07:55:02.363Z,38.6
2018-12-12T07:55:52.955Z,38.6
2018-12-12T07:56:42.485Z,38.6
2018-12-12T07:57:31.968Z,38.6
2018-12-12T07:58:23.241Z,38.6
2018-12-12T07:59:12.649Z,38.6
2018-12-12T08:00:02.179Z,38.6
2018-12-12T08:00:52.817Z,38.6
2018-12-12T08:01:43.584Z,38.6
2018-12-12T08:02:33.144Z,38.6
2018-12-12T08:03:22.409Z,38.6
2018-12-12T08:04:13.279Z,38.6
2018-12-12T08:05:03.045Z,38.6
2018-12-12T08:05:52.836Z,38.6
2018-12-12T08:06:43.154Z,38.6
2018-12-12T08:07:32.961Z,38.6
2018-12-12T08:08:24.409Z,38.6
2018-12-12T08:09:13.347Z,38.5
2018-12-12T08:10:03.425Z,38.6
2018-12-12T08:10:53.258Z,38.5
2018-12-12T08:11:43.456Z,38.6
2018-12-12T08:12:33.806Z,38.5
2018-12-12T08:13:23.954Z,38.5
2018-12-12T08:14:14.266Z,38.5
2018-12-12T08:15:03.719Z,38.5
2018-12-12T08:15:53.241Z,38.5
2018-12-12T08:16:43.883Z,38.5
2018-12-12T08:17:34.795Z,38.5
2018-12-12T08:18:23.971Z,38.5
2018-12-12T08:19:14.286Z,38.5
2018-12-12T08:20:04.381Z,38.4
2018-12-12T08:20:53.573Z,38.5
2018-12-12T08:21:44.470Z,38.4
2018-12-12T08:22:34.263Z,38.4
2018-12-12T08:23:24.346Z,38.4
2018-12-12T08:24:14.195Z,38.4
2018-12-12T08:25:04.990Z,38.4
2018-12-12T08:25:54.820Z,38.4
2018-12-12T08:26:44.376Z,38.4
2018-12-12T08:27:34.147Z,38.4
2018-12-12T08:28:23.705Z,38.4
2018-12-12T08:29:14.803Z,38.4
2018-12-12T08:30:03.890Z,38.4
2018-12-12T08:30:54.397Z,38.4
2018-12-12T08:31:44.155Z,38.4
2018-12-12T08:32:34.120Z,38.4
2018-12-12T08:33:24.540Z,38.4
2018-12-12T08:34:14.937Z,38.4
2018-12-12T08:35:04.485Z,38.4
2018-12-12T08:35:54.940Z,38.4
2018-12-12T08:36:45.025Z,38.4
2018-12-12T08:37:35.929Z,38.4
2018-12-12T08:38:24.399Z,38.3
2018-12-12T08:39:14.235Z,38.4
2018-12-12T08:40:06.027Z,38.3
2018-12-12T08:40:55.607Z,38.3
2018-12-12T08:41:44.849Z,38.3
2018-12-12T08:42:35.452Z,38.3
2018-12-12T08:43:25.234Z,38.3
2018-12-12T08:44:15.915Z,38.3
2018-12-12T08:45:05.911Z,38.3
2018-12-12T08:45:55.402Z,38.3
2018-12-12T08:46:45.431Z,38.3
2018-12-12T08:47:35.241Z,38.3
2018-12-12T08:48:26.220Z,38.3
2018-12-12T08:49:15.454Z,38.3
2018-12-12T08:50:06.291Z,38.3
2018-12-12T08:50:55.752Z,38.3
2018-12-12T08:51:45.278Z,38.3
2018-12-12T08:52:36.134Z,38.3
2018-12-12T08:53:26.421Z,38.3
2018-12-12T08:54:16.209Z,38.3
2018-12-12T08:55:06.022Z,38.3
2018-12-12T08:55:56.349Z,38.3
2018-12-12T08:56:46.130Z,38.3
2018-12-12T08:57:35.421Z,38.2
2018-12-12T08:58:25.978Z,38.2
2018-12-12T08:59:16.106Z,38.2
2018-12-12T09:00:06.740Z,38.2
2018-12-12T09:16:28.500Z,38.1
2018-12-12T09:17:17.933Z,38.1
2018-12-12T09:18:07.697Z,38.1
2018-12-12T09:18:58.312Z,38.1
2018-12-12T09:19:47.817Z,38.1
2018-12-12T09:20:38.267Z,38.1
2018-12-12T09:21:30.028Z,38.1
2018-12-12T09:22:18.113Z,38.1
2018-12-12T09:23:08.600Z,38.1
2018-12-12T09:23:58.400Z,38.1
2018-12-12T09:24:47.883Z,38.1
2018-12-12T09:25:38.536Z,38.1
2018-12-12T09:26:29.042Z,38.1
2018-12-12T09:27:18.883Z,38
2018-12-12T09:28:08.399Z,38
2018-12-12T09:28:58.729Z,38
2018-12-12T09:29:48.584Z,38
2018-12-12T09:30:39.101Z,38
2018-12-12T09:31:29.667Z,38
2018-12-12T09:32:19.216Z,38
2018-12-12T09:33:09.247Z,38
2018-12-12T09:33:58.772Z,38
2018-12-12T09:34:48.566Z,38
2018-12-12T09:35:38.919Z,38
2018-12-12T09:36:29.196Z,38
2018-12-12T09:37:19.555Z,37.9
2018-12-12T09:38:09.336Z,38
2018-12-12T09:38:59.686Z,37.9
2018-12-12T09:39:49.269Z,37.9
2018-12-12T09:40:39.255Z,37.9
2018-12-12T09:41:29.918Z,37.9
2018-12-12T09:42:19.893Z,37.9
2018-12-12T09:43:10.206Z,37.9
2018-12-12T09:44:00.014Z,37.9
2018-12-12T09:44:50.301Z,37.9
2018-12-12T09:45:39.577Z,37.9
2018-12-12T09:46:30.951Z,37.9
2018-12-12T09:47:20.159Z,37.9
2018-12-12T09:48:09.266Z,37.9
2018-12-12T09:48:59.834Z,37.9
2018-12-12T09:49:50.367Z,37.9
2018-12-12T09:50:40.701Z,37.9
2018-12-12T09:51:30.547Z,37.9
2018-12-12T09:52:20.108Z,37.9
2018-12-12T09:53:10.664Z,37.9
2018-12-12T09:54:00.183Z,37.9
2018-12-12T09:54:50.688Z,37.9
2018-12-12T09:55:42.373Z,37.9
2018-12-12T09:56:30.833Z,37.8
2018-12-12T09:57:21.476Z,37.8
2018-12-12T09:58:10.943Z,37.8
2018-12-12T09:59:01.575Z,37.8
2018-12-12T09:59:51.310Z,37.8
2018-12-12T10:00:41.412Z,37.8
2018-12-12T10:01:31.235Z,37.8
2018-12-12T10:02:21.018Z,37.8
2018-12-12T10:03:12.421Z,37.8
2018-12-12T10:04:01.899Z,37.8
2018-12-12T10:04:50.635Z,37.8
2018-12-12T10:05:41.997Z,37.8
2018-12-12T10:06:31.257Z,37.8
2018-12-12T10:07:22.368Z,37.8
2018-12-12T10:08:12.227Z,37.8
2018-12-12T10:09:03.420Z,37.8
2018-12-12T10:09:52.282Z,37.8
2018-12-12T10:10:41.783Z,37.8
2018-12-12T10:11:32.127Z,37.8
2018-12-12T10:12:22.007Z,37.8
2018-12-12T10:13:12.529Z,37.8
2018-12-12T10:14:02.317Z,37.8
2018-12-12T10:14:52.944Z,37.7
2018-12-12T10:15:42.157Z,37.7
2018-12-12T10:16:32.547Z,37.7
2018-12-12T10:17:21.777Z,37.7
2018-12-12T10:18:12.047Z,37.7
2018-12-12T10:19:02.671Z,37.7
2018-12-12T10:19:52.713Z,37.7
2018-12-12T10:20:43.042Z,37.7
2018-12-12T10:21:33.111Z,37.7
2018-12-12T10:22:22.974Z,37.7
2018-12-12T10:23:13.259Z,37.7
2018-12-12T10:24:02.991Z,37.7
2018-12-12T10:24:53.464Z,37.6
2018-12-12T10:25:43.458Z,37.6
2018-12-12T10:26:32.898Z,37.6
2018-12-12T10:27:23.501Z,37.6
2018-12-12T10:28:13.599Z,37.6
2018-12-12T10:29:03.101Z,37.6
2018-12-12T10:29:53.466Z,37.6
2018-12-12T10:30:43.829Z,37.6
2018-12-12T10:31:33.634Z,37.6
2018-12-12T10:32:23.618Z,37.6
2018-12-12T10:33:13.666Z,37.6
2018-12-12T10:34:03.693Z,37.6
2018-12-12T10:34:53.762Z,37.6
2018-12-12T10:35:44.093Z,37.6
2018-12-12T10:36:33.423Z,37.6
2018-12-12T10:37:23.384Z,37.6
2018-12-12T10:38:13.423Z,37.6
2018-12-12T10:39:04.070Z,37.6
2018-12-12T10:39:54.113Z,37.6
2018-12-12T10:40:44.213Z,37.6
2018-12-12T10:41:34.279Z,37.6
2018-12-12T10:42:24.250Z,37.6
2018-12-12T10:43:14.351Z,37.6
2018-12-12T10:44:04.115Z,37.6
2018-12-12T10:44:54.455Z,37.5
2018-12-12T10:45:44.565Z,37.5
2018-12-12T10:46:34.355Z,37.5
2018-12-12T10:47:24.133Z,37.5
2018-12-12T10:48:14.488Z,37.5
2018-12-12T10:49:04.017Z,37.5
2018-12-12T10:49:54.858Z,37.5
2018-12-12T10:50:45.277Z,37.5
2018-12-12T10:51:34.652Z,37.5
2018-12-12T10:52:24.969Z,37.5
2018-12-12T10:53:16.110Z,37.5
2018-12-12T10:54:05.370Z,37.4
2018-12-12T10:54:55.145Z,37.4
2018-12-12T10:55:45.684Z,37.4
2018-12-12T10:56:34.804Z,37.4
2018-12-12T10:57:24.762Z,37.4
2018-12-12T10:58:15.885Z,37.4
2018-12-12T10:59:05.426Z,37.4
2018-12-12T10:59:55.472Z,37.4
2018-12-12T11:00:45.007Z,37.4
2018-12-12T11:01:35.887Z,37.4
2018-12-12T11:02:25.942Z,37.4
2018-12-12T11:03:15.397Z,37.4
2018-12-12T11:04:06.040Z,37.4
2018-12-12T11:04:55.822Z,37.4
2018-12-12T11:05:46.416Z,37.4
2018-12-12T11:06:35.726Z,37.4
2018-12-12T11:07:26.291Z,37.4
2018-12-12T11:08:16.314Z,37.4
2018-12-12T11:09:06.675Z,37.4
2018-12-12T11:09:56.500Z,37.4
2018-12-12T11:10:46.749Z,37.3
2018-12-12T11:11:36.868Z,37.4
2018-12-12T11:12:26.616Z,37.3
2018-12-12T11:13:16.401Z,37.3
2018-12-12T11:14:07.585Z,37.3
2018-12-12T11:14:55.981Z,37.3
2018-12-12T11:15:46.559Z,37.3
2018-12-12T11:16:36.628Z,37.3
2018-12-12T11:17:26.950Z,37.3
2018-12-12T11:18:16.518Z,37.3
2018-12-12T11:19:07.427Z,37.3
2018-12-12T11:19:56.613Z,37.3
2018-12-12T11:20:46.898Z,37.3
2018-12-12T11:21:36.953Z,37.3
2018-12-12T11:22:27.293Z,37.3
2018-12-12T11:23:17.077Z,37.3
2018-12-12T11:24:07.733Z,37.3
2018-12-12T11:24:57.540Z,37.3
2018-12-12T11:25:47.230Z,37.3
2018-12-12T11:26:37.316Z,37.3
2018-12-12T11:27:27.635Z,37.3
2018-12-12T11:28:17.177Z,37.3
2018-12-12T11:29:07.220Z,37.3
2018-12-12T11:29:57.645Z,37.3
2018-12-12T11:30:47.042Z,37.2
2018-12-12T11:31:37.105Z,37.2
2018-12-12T11:32:27.431Z,37.2
2018-12-12T11:33:18.042Z,37.3
2018-12-12T11:34:07.873Z,27.1
2018-12-12T11:34:57.650Z,28.4
2018-12-12T11:35:47.932Z,44.8
2018-12-12T11:36:39.410Z,51.9
2018-12-12T11:37:28.047Z,52.3
2018-12-12T11:38:18.409Z,51.8
2018-12-12T11:39:07.682Z,51.1
2018-12-12T11:39:58.762Z,50.4
2018-12-12T11:40:48.879Z,49.9
2018-12-12T11:41:38.420Z,49.3
2018-12-12T11:42:28.691Z,48.8
2018-12-12T11:43:18.460Z,48.2
2018-12-12T11:44:08.821Z,47.8
2018-12-12T11:44:58.313Z,47.3
2018-12-12T11:45:48.677Z,46.9
2018-12-12T11:46:38.699Z,46.5
2018-12-12T11:47:29.031Z,46.1
2018-12-12T11:48:18.801Z,45.8
2018-12-12T11:49:08.654Z,45.5
2018-12-12T11:49:59.508Z,45.2
2018-12-12T11:50:48.992Z,44.9
2018-12-12T11:51:38.798Z,44.6
2018-12-12T11:52:29.093Z,44.3
2018-12-12T11:53:18.873Z,44.1
2018-12-12T11:54:08.921Z,43.9
2018-12-12T11:54:59.251Z,43.6
2018-12-12T11:55:49.176Z,43.4
2018-12-12T11:56:38.743Z,43.3
2018-12-12T11:57:29.218Z,43
2018-12-12T11:58:18.278Z,42.8
2018-12-12T11:59:08.564Z,42.7
2018-12-12T11:59:58.849Z,42.5
2018-12-12T12:00:49.013Z,42.4
2018-12-12T12:01:39.314Z,42.2
2018-12-12T12:02:35.402Z,42.1
2018-12-12T12:03:19.367Z,41.9
2018-12-12T12:04:10.190Z,41.8
2018-12-12T12:04:59.677Z,41.7
2018-12-12T12:05:50.074Z,41.6
2018-12-12T12:06:40.678Z,41.4
2018-12-12T12:07:30.500Z,41.3
2018-12-12T12:08:20.180Z,41.3
2018-12-12T12:09:10.308Z,41.1
2018-12-12T12:10:00.326Z,41.1
2018-12-12T12:10:50.175Z,40.9
2018-12-12T12:11:40.940Z,40.9
2018-12-12T12:12:30.473Z,40.8
2018-12-12T12:13:20.288Z,40.7
2018-12-12T12:14:10.877Z,40.6
2018-12-12T12:15:00.919Z,40.6
2018-12-12T12:15:50.987Z,40.5
2018-12-12T12:16:41.019Z,40.4
2018-12-12T12:17:31.189Z,40.3
2018-12-12T12:18:20.867Z,40.3
2018-12-12T12:19:10.962Z,40.3
2018-12-12T12:20:01.329Z,40.2
2018-12-12T12:20:51.354Z,40.1
2018-12-12T12:21:40.857Z,40.1
2018-12-12T12:22:31.444Z,40
2018-12-12T12:23:21.223Z,39.9
2018-12-12T12:24:10.780Z,39.9
2018-12-12T12:25:01.640Z,39.9
2018-12-12T12:25:51.746Z,39.8